sensor_id;sensor_type;location;lat;lon;timestamp;temperature;humidity
22192;DHT22;11261;52.456;10.850;2023-04-03T00:01:22;0.70;99.90
22192;DHT22;11261;52.456;10.850;2023-04-03T00:03:50;0.60;99.90
22192;DHT22;11261;52.456;10.850;2023-04-03T00:06:20;0.60;99.90
22192;DHT22;11261;52.456;10.850;2023-04-03T00:08:49;0.50;99.90
22192;DHT22;11261;52.456;10.850;2023-04-03T00:11:18;0.50;99.90
22192;DHT22;11261;52.456;10.850;2023-04-03T00:13:47;0.60;99.90
22192;DHT22;11261;52.456;10.850;2023-04-03T00:16:15;0.60;99.90
22192;DHT22;11261;52.456;10.850;2023-04-03T00:18:43;0.60;99.90
22192;DHT22;11261;52.456;10.850;2023-04-03T00:21:13;0.50;99.90
22192;DHT22;11261;52.456;10.850;2023-04-03T00:23:42;0.50;99.90
22192;DHT22;11261;52.456;10.850;2023-04-03T00:26:11;0.50;99.90
22192;DHT22;11261;52.456;10.850;2023-04-03T00:28:39;0.60;99.90
22192;DHT22;11261;52.456;10.850;2023-04-03T00:31:07;0.60;99.90
22192;DHT22;11261;52.456;10.850;2023-04-03T00:33:36;0.50;99.90
22192;DHT22;11261;52.456;10.850;2023-04-03T00:36:08;0.30;99.90
22192;DHT22;11261;52.456;10.850;2023-04-03T00:38:37;0.10;99.90
22192;DHT22;11261;52.456;10.850;2023-04-03T00:41:07;0.20;99.90
22192;DHT22;11261;52.456;10.850;2023-04-03T00:43:35;0.40;99.90
22192;DHT22;11261;52.456;10.850;2023-04-03T00:46:04;0.40;99.90
22192;DHT22;11261;52.456;10.850;2023-04-03T00:48:34;0.50;99.90
22192;DHT22;11261;52.456;10.850;2023-04-03T00:51:06;0.40;99.90
22192;DHT22;11261;52.456;10.850;2023-04-03T00:53:38;0.40;99.90
22192;DHT22;11261;52.456;10.850;2023-04-03T00:56:11;0.40;99.90
22192;DHT22;11261;52.456;10.850;2023-04-03T00:58:43;0.40;99.90
22192;DHT22;11261;52.456;10.850;2023-04-03T01:01:16;0.30;99.90
22192;DHT22;11261;52.456;10.850;2023-04-03T01:03:44;0.20;99.90
22192;DHT22;11261;52.456;10.850;2023-04-03T01:06:14;0.20;99.90
22192;DHT22;11261;52.456;10.850;2023-04-03T01:08:44;0.20;99.90
22192;DHT22;11261;52.456;10.850;2023-04-03T01:11:15;0.20;99.90
22192;DHT22;11261;52.456;10.850;2023-04-03T01:13:43;0.20;99.90
22192;DHT22;11261;52.456;10.850;2023-04-03T01:16:11;0.20;99.90
22192;DHT22;11261;52.456;10.850;2023-04-03T01:18:40;0.20;99.90
22192;DHT22;11261;52.456;10.850;2023-04-03T01:21:34;0.20;99.90
22192;DHT22;11261;52.456;10.850;2023-04-03T01:24:32;0.10;99.90
22192;DHT22;11261;52.456;10.850;2023-04-03T01:27:04;0.00;99.90
22192;DHT22;11261;52.456;10.850;2023-04-03T01:29:32;0.00;99.90
22192;DHT22;11261;52.456;10.850;2023-04-03T01:32:03;0.00;99.90
22192;DHT22;11261;52.456;10.850;2023-04-03T01:34:32;0.10;99.90
22192;DHT22;11261;52.456;10.850;2023-04-03T01:37:00;0.10;99.90
22192;DHT22;11261;52.456;10.850;2023-04-03T01:39:28;0.10;99.90
22192;DHT22;11261;52.456;10.850;2023-04-03T01:41:57;0.10;99.90
22192;DHT22;11261;52.456;10.850;2023-04-03T01:44:26;0.10;99.90
22192;DHT22;11261;52.456;10.850;2023-04-03T01:46:54;0.10;99.90
22192;DHT22;11261;52.456;10.850;2023-04-03T01:49:23;0.00;99.90
22192;DHT22;11261;52.456;10.850;2023-04-03T01:51:51;0.10;99.90
22192;DHT22;11261;52.456;10.850;2023-04-03T01:54:20;0.00;99.90
22192;DHT22;11261;52.456;10.850;2023-04-03T01:56:48;0.00;99.90
22192;DHT22;11261;52.456;10.850;2023-04-03T01:59:16;0.00;99.90
22192;DHT22;11261;52.456;10.850;2023-04-03T02:01:45;0.00;99.90
22192;DHT22;11261;52.456;10.850;2023-04-03T02:04:14;-0.10;99.90
22192;DHT22;11261;52.456;10.850;2023-04-03T02:06:43;-0.10;99.90
22192;DHT22;11261;52.456;10.850;2023-04-03T02:09:12;-0.10;99.90
22192;DHT22;11261;52.456;10.850;2023-04-03T02:11:40;0.00;99.90
22192;DHT22;11261;52.456;10.850;2023-04-03T02:14:09;-0.10;99.90
22192;DHT22;11261;52.456;10.850;2023-04-03T02:16:37;-0.20;99.90
22192;DHT22;11261;52.456;10.850;2023-04-03T02:19:05;-0.20;99.90
22192;DHT22;11261;52.456;10.850;2023-04-03T02:21:33;-0.30;99.90
22192;DHT22;11261;52.456;10.850;2023-04-03T02:24:03;-0.30;99.90
22192;DHT22;11261;52.456;10.850;2023-04-03T02:26:32;-0.30;99.90
22192;DHT22;11261;52.456;10.850;2023-04-03T02:29:00;-0.30;99.90
22192;DHT22;11261;52.456;10.850;2023-04-03T02:31:28;-0.30;99.90
22192;DHT22;11261;52.456;10.850;2023-04-03T02:33:57;-0.30;99.90
22192;DHT22;11261;52.456;10.850;2023-04-03T02:36:25;-0.20;99.90
22192;DHT22;11261;52.456;10.850;2023-04-03T02:38:53;-0.30;99.90
22192;DHT22;11261;52.456;10.850;2023-04-03T02:41:23;-0.30;99.90
22192;DHT22;11261;52.456;10.850;2023-04-03T02:43:53;-0.30;99.90
22192;DHT22;11261;52.456;10.850;2023-04-03T02:46:21;-0.30;99.90
22192;DHT22;11261;52.456;10.850;2023-04-03T02:48:49;-0.30;99.90
22192;DHT22;11261;52.456;10.850;2023-04-03T02:51:18;-0.40;99.90
22192;DHT22;11261;52.456;10.850;2023-04-03T02:53:46;-0.30;99.90
22192;DHT22;11261;52.456;10.850;2023-04-03T02:56:14;-0.50;99.90
22192;DHT22;11261;52.456;10.850;2023-04-03T02:58:45;-0.40;99.90
22192;DHT22;11261;52.456;10.850;2023-04-03T03:01:14;-0.40;99.90
22192;DHT22;11261;52.456;10.850;2023-04-03T03:03:42;-0.40;99.90
22192;DHT22;11261;52.456;10.850;2023-04-03T03:06:13;-0.40;99.90
22192;DHT22;11261;52.456;10.850;2023-04-03T03:08:42;-0.40;99.90
22192;DHT22;11261;52.456;10.850;2023-04-03T03:11:10;-0.30;99.90
22192;DHT22;11261;52.456;10.850;2023-04-03T03:13:38;-0.40;99.90
22192;DHT22;11261;52.456;10.850;2023-04-03T03:16:08;-0.30;99.90
22192;DHT22;11261;52.456;10.850;2023-04-03T03:18:37;-0.40;99.90
22192;DHT22;11261;52.456;10.850;2023-04-03T03:21:05;-0.50;99.90
22192;DHT22;11261;52.456;10.850;2023-04-03T03:23:33;-0.50;99.90
22192;DHT22;11261;52.456;10.850;2023-04-03T03:26:04;-0.50;99.90
22192;DHT22;11261;52.456;10.850;2023-04-03T03:28:33;-0.50;99.90
22192;DHT22;11261;52.456;10.850;2023-04-03T03:31:02;-0.50;99.90
22192;DHT22;11261;52.456;10.850;2023-04-03T03:33:32;-0.50;99.90
22192;DHT22;11261;52.456;10.850;2023-04-03T03:36:00;-0.50;99.90
22192;DHT22;11261;52.456;10.850;2023-04-03T03:38:29;-0.60;99.90
22192;DHT22;11261;52.456;10.850;2023-04-03T03:40:57;-0.60;99.90
22192;DHT22;11261;52.456;10.850;2023-04-03T03:43:25;-0.60;99.90
22192;DHT22;11261;52.456;10.850;2023-04-03T03:45:54;-0.60;99.90
22192;DHT22;11261;52.456;10.850;2023-04-03T03:48:23;-0.60;99.90
22192;DHT22;11261;52.456;10.850;2023-04-03T03:50:52;-0.50;99.90
22192;DHT22;11261;52.456;10.850;2023-04-03T03:53:20;-0.60;99.90
22192;DHT22;11261;52.456;10.850;2023-04-03T03:55:48;-0.60;99.90
22192;DHT22;11261;52.456;10.850;2023-04-03T03:58:17;-0.50;99.90
22192;DHT22;11261;52.456;10.850;2023-04-03T04:00:45;-0.30;99.90
22192;DHT22;11261;52.456;10.850;2023-04-03T04:03:13;-0.60;99.90
22192;DHT22;11261;52.456;10.850;2023-04-03T04:05:42;-0.70;99.90
22192;DHT22;11261;52.456;10.850;2023-04-03T04:08:12;-0.70;99.90
22192;DHT22;11261;52.456;10.850;2023-04-03T04:10:40;-0.70;99.90
22192;DHT22;11261;52.456;10.850;2023-04-03T04:13:09;-0.70;99.90
22192;DHT22;11261;52.456;10.850;2023-04-03T04:15:37;-0.70;99.90
22192;DHT22;11261;52.456;10.850;2023-04-03T04:18:06;-0.70;99.90
22192;DHT22;11261;52.456;10.850;2023-04-03T04:20:34;-0.70;99.90
22192;DHT22;11261;52.456;10.850;2023-04-03T04:23:02;-0.60;99.90
22192;DHT22;11261;52.456;10.850;2023-04-03T04:25:32;-0.60;99.90
22192;DHT22;11261;52.456;10.850;2023-04-03T04:28:01;-0.70;99.90
22192;DHT22;11261;52.456;10.850;2023-04-03T04:30:29;-0.60;99.90
22192;DHT22;11261;52.456;10.850;2023-04-03T04:32:57;-0.60;99.90
22192;DHT22;11261;52.456;10.850;2023-04-03T04:35:26;-0.60;99.90
22192;DHT22;11261;52.456;10.850;2023-04-03T04:37:55;-0.70;99.90
22192;DHT22;11261;52.456;10.850;2023-04-03T04:40:23;-0.70;99.90
22192;DHT22;11261;52.456;10.850;2023-04-03T04:42:53;-0.70;99.90
22192;DHT22;11261;52.456;10.850;2023-04-03T04:45:21;-0.70;99.90
22192;DHT22;11261;52.456;10.850;2023-04-03T04:47:50;-0.70;99.90
22192;DHT22;11261;52.456;10.850;2023-04-03T04:50:19;-0.80;99.90
22192;DHT22;11261;52.456;10.850;2023-04-03T04:52:48;-0.80;99.90
22192;DHT22;11261;52.456;10.850;2023-04-03T04:55:16;-0.70;99.90
22192;DHT22;11261;52.456;10.850;2023-04-03T04:57:45;-0.40;99.90
22192;DHT22;11261;52.456;10.850;2023-04-03T05:00:15;-0.50;99.90
22192;DHT22;11261;52.456;10.850;2023-04-03T05:02:44;-0.70;99.90
22192;DHT22;11261;52.456;10.850;2023-04-03T05:05:12;-0.60;99.90
22192;DHT22;11261;52.456;10.850;2023-04-03T05:07:41;-0.60;99.90
22192;DHT22;11261;52.456;10.850;2023-04-03T05:10:10;-0.70;99.90
22192;DHT22;11261;52.456;10.850;2023-04-03T05:12:38;-0.60;99.90
22192;DHT22;11261;52.456;10.850;2023-04-03T05:15:07;-0.50;99.90
22192;DHT22;11261;52.456;10.850;2023-04-03T05:17:37;0.10;99.90
22192;DHT22;11261;52.456;10.850;2023-04-03T05:20:07;0.10;99.90
22192;DHT22;11261;52.456;10.850;2023-04-03T05:22:35;0.30;99.90
22192;DHT22;11261;52.456;10.850;2023-04-03T05:25:05;0.90;99.90
22192;DHT22;11261;52.456;10.850;2023-04-03T05:27:33;1.20;99.90
22192;DHT22;11261;52.456;10.850;2023-04-03T05:30:02;1.00;99.90
22192;DHT22;11261;52.456;10.850;2023-04-03T05:32:31;1.20;99.90
22192;DHT22;11261;52.456;10.850;2023-04-03T05:35:01;1.80;99.90
22192;DHT22;11261;52.456;10.850;2023-04-03T05:37:29;1.60;99.90
22192;DHT22;11261;52.456;10.850;2023-04-03T05:39:58;1.80;99.90
22192;DHT22;11261;52.456;10.850;2023-04-03T05:42:26;2.30;99.90
22192;DHT22;11261;52.456;10.850;2023-04-03T05:44:54;2.30;99.90
22192;DHT22;11261;52.456;10.850;2023-04-03T05:47:23;2.50;99.90
22192;DHT22;11261;52.456;10.850;2023-04-03T05:49:51;3.00;99.90
22192;DHT22;11261;52.456;10.850;2023-04-03T05:52:25;3.50;99.90
22192;DHT22;11261;52.456;10.850;2023-04-03T05:54:54;3.10;99.90
22192;DHT22;11261;52.456;10.850;2023-04-03T05:57:22;2.90;99.90
22192;DHT22;11261;52.456;10.850;2023-04-03T05:59:51;3.00;99.90
22192;DHT22;11261;52.456;10.850;2023-04-03T06:02:21;3.40;99.90
22192;DHT22;11261;52.456;10.850;2023-04-03T06:04:49;3.20;99.90
22192;DHT22;11261;52.456;10.850;2023-04-03T06:07:20;3.40;99.90
22192;DHT22;11261;52.456;10.850;2023-04-03T06:09:51;4.20;99.90
22192;DHT22;11261;52.456;10.850;2023-04-03T06:12:20;4.20;99.90
22192;DHT22;11261;52.456;10.850;2023-04-03T06:14:48;4.20;99.90
22192;DHT22;11261;52.456;10.850;2023-04-03T06:17:17;4.20;99.90
22192;DHT22;11261;52.456;10.850;2023-04-03T06:19:46;4.20;99.90
22192;DHT22;11261;52.456;10.850;2023-04-03T06:22:14;4.00;99.90
22192;DHT22;11261;52.456;10.850;2023-04-03T06:24:42;4.40;99.90
22192;DHT22;11261;52.456;10.850;2023-04-03T06:27:12;4.40;99.90
22192;DHT22;11261;52.456;10.850;2023-04-03T06:29:41;4.20;99.90
22192;DHT22;11261;52.456;10.850;2023-04-03T06:32:09;4.50;99.90
22192;DHT22;11261;52.456;10.850;2023-04-03T06:34:38;4.70;99.90
22192;DHT22;11261;52.456;10.850;2023-04-03T06:37:06;5.00;99.90
22192;DHT22;11261;52.456;10.850;2023-04-03T06:39:35;4.90;99.90
22192;DHT22;11261;52.456;10.850;2023-04-03T06:42:03;4.80;99.90
22192;DHT22;11261;52.456;10.850;2023-04-03T06:44:33;5.00;99.90
22192;DHT22;11261;52.456;10.850;2023-04-03T06:47:01;6.10;99.90
22192;DHT22;11261;52.456;10.850;2023-04-03T06:49:30;6.00;99.90
22192;DHT22;11261;52.456;10.850;2023-04-03T06:51:58;5.70;99.90
22192;DHT22;11261;52.456;10.850;2023-04-03T06:54:28;6.10;99.90
22192;DHT22;11261;52.456;10.850;2023-04-03T06:56:56;5.90;99.90
22192;DHT22;11261;52.456;10.850;2023-04-03T06:59:25;6.70;99.90
22192;DHT22;11261;52.456;10.850;2023-04-03T07:01:54;6.30;99.90
22192;DHT22;11261;52.456;10.850;2023-04-03T07:04:22;6.20;99.90
22192;DHT22;11261;52.456;10.850;2023-04-03T07:06:51;5.90;99.90
22192;DHT22;11261;52.456;10.850;2023-04-03T07:09:19;6.70;99.90
22192;DHT22;11261;52.456;10.850;2023-04-03T07:11:48;6.40;99.90
22192;DHT22;11261;52.456;10.850;2023-04-03T07:14:16;6.90;99.90
22192;DHT22;11261;52.456;10.850;2023-04-03T07:16:45;6.90;99.90
22192;DHT22;11261;52.456;10.850;2023-04-03T07:19:14;7.10;99.90
22192;DHT22;11261;52.456;10.850;2023-04-03T07:21:44;7.00;99.90
22192;DHT22;11261;52.456;10.850;2023-04-03T07:24:12;7.10;99.90
22192;DHT22;11261;52.456;10.850;2023-04-03T07:26:42;6.70;99.90
22192;DHT22;11261;52.456;10.850;2023-04-03T07:29:12;7.50;99.90
22192;DHT22;11261;52.456;10.850;2023-04-03T07:31:41;6.40;99.90
22192;DHT22;11261;52.456;10.850;2023-04-03T07:34:09;6.00;99.90
22192;DHT22;11261;52.456;10.850;2023-04-03T07:36:38;6.00;99.90
22192;DHT22;11261;52.456;10.850;2023-04-03T07:39:07;6.30;99.90
22192;DHT22;11261;52.456;10.850;2023-04-03T07:41:36;5.60;99.90
22192;DHT22;11261;52.456;10.850;2023-04-03T07:44:04;6.90;99.90
22192;DHT22;11261;52.456;10.850;2023-04-03T07:46:32;6.90;99.90
22192;DHT22;11261;52.456;10.850;2023-04-03T07:49:01;7.20;99.90
22192;DHT22;11261;52.456;10.850;2023-04-03T07:51:29;6.70;99.90
22192;DHT22;11261;52.456;10.850;2023-04-03T07:53:59;7.20;99.90
22192;DHT22;11261;52.456;10.850;2023-04-03T07:56:27;7.70;99.90
22192;DHT22;11261;52.456;10.850;2023-04-03T07:58:55;7.50;99.90
22192;DHT22;11261;52.456;10.850;2023-04-03T08:01:23;6.80;99.90
22192;DHT22;11261;52.456;10.850;2023-04-03T08:03:51;5.80;99.90
22192;DHT22;11261;52.456;10.850;2023-04-03T08:06:20;6.30;99.90
22192;DHT22;11261;52.456;10.850;2023-04-03T08:09:04;7.40;99.90
22192;DHT22;11261;52.456;10.850;2023-04-03T08:11:33;8.10;99.90
22192;DHT22;11261;52.456;10.850;2023-04-03T08:14:03;7.90;99.90
22192;DHT22;11261;52.456;10.850;2023-04-03T08:16:31;7.80;99.90
22192;DHT22;11261;52.456;10.850;2023-04-03T08:18:59;7.80;99.90
22192;DHT22;11261;52.456;10.850;2023-04-03T08:21:28;7.30;99.90
22192;DHT22;11261;52.456;10.850;2023-04-03T08:23:56;6.70;99.90
22192;DHT22;11261;52.456;10.850;2023-04-03T08:26:26;6.70;99.90
22192;DHT22;11261;52.456;10.850;2023-04-03T08:28:54;8.30;99.90
22192;DHT22;11261;52.456;10.850;2023-04-03T08:31:22;7.10;99.90
22192;DHT22;11261;52.456;10.850;2023-04-03T08:33:51;8.40;99.90
22192;DHT22;11261;52.456;10.850;2023-04-03T08:36:21;7.40;99.90
22192;DHT22;11261;52.456;10.850;2023-04-03T08:38:51;7.40;99.90
22192;DHT22;11261;52.456;10.850;2023-04-03T08:41:29;8.70;99.90
22192;DHT22;11261;52.456;10.850;2023-04-03T08:44:04;7.90;99.90
22192;DHT22;11261;52.456;10.850;2023-04-03T08:46:58;7.00;99.90
22192;DHT22;11261;52.456;10.850;2023-04-03T08:49:31;7.10;99.90
22192;DHT22;11261;52.456;10.850;2023-04-03T08:52:04;8.70;99.90
22192;DHT22;11261;52.456;10.850;2023-04-03T08:54:35;9.60;99.90
22192;DHT22;11261;52.456;10.850;2023-04-03T08:57:06;10.10;99.90
22192;DHT22;11261;52.456;10.850;2023-04-03T08:59:35;9.40;99.90
22192;DHT22;11261;52.456;10.850;2023-04-03T09:02:21;8.90;99.90
22192;DHT22;11261;52.456;10.850;2023-04-03T09:04:50;8.40;99.90
22192;DHT22;11261;52.456;10.850;2023-04-03T09:07:25;8.70;99.90
22192;DHT22;11261;52.456;10.850;2023-04-03T09:09:55;8.70;98.80
22192;DHT22;11261;52.456;10.850;2023-04-03T09:12:33;7.70;99.90
22192;DHT22;11261;52.456;10.850;2023-04-03T09:15:10;7.80;99.90
22192;DHT22;11261;52.456;10.850;2023-04-03T09:17:53;9.70;99.10
22192;DHT22;11261;52.456;10.850;2023-04-03T09:20:29;9.00;99.90
22192;DHT22;11261;52.456;10.850;2023-04-03T09:23:04;7.80;98.20
22192;DHT22;11261;52.456;10.850;2023-04-03T09:25:38;9.30;99.90
22192;DHT22;11261;52.456;10.850;2023-04-03T09:28:08;8.90;98.90
22192;DHT22;11261;52.456;10.850;2023-04-03T09:30:37;8.40;97.50
22192;DHT22;11261;52.456;10.850;2023-04-03T09:33:06;8.20;97.00
22192;DHT22;11261;52.456;10.850;2023-04-03T09:35:36;7.00;98.60
22192;DHT22;11261;52.456;10.850;2023-04-03T09:38:21;7.00;99.90
22192;DHT22;11261;52.456;10.850;2023-04-03T09:40:50;6.80;99.30
22192;DHT22;11261;52.456;10.850;2023-04-03T09:43:33;6.70;99.60
22192;DHT22;11261;52.456;10.850;2023-04-03T09:46:23;7.60;98.50
22192;DHT22;11261;52.456;10.850;2023-04-03T09:48:56;7.10;97.50
22192;DHT22;11261;52.456;10.850;2023-04-03T09:51:35;8.10;99.00
22192;DHT22;11261;52.456;10.850;2023-04-03T09:54:32;9.20;96.80
22192;DHT22;11261;52.456;10.850;2023-04-03T09:57:03;9.00;95.90
22192;DHT22;11261;52.456;10.850;2023-04-03T09:59:34;8.20;96.50
22192;DHT22;11261;52.456;10.850;2023-04-03T10:02:04;7.80;99.10
22192;DHT22;11261;52.456;10.850;2023-04-03T10:04:46;7.30;97.40
22192;DHT22;11261;52.456;10.850;2023-04-03T10:07:35;8.40;99.90
22192;DHT22;11261;52.456;10.850;2023-04-03T10:10:17;7.90;97.70
22192;DHT22;11261;52.456;10.850;2023-04-03T10:12:47;8.50;95.50
22192;DHT22;11261;52.456;10.850;2023-04-03T10:15:17;8.30;98.40
22192;DHT22;11261;52.456;10.850;2023-04-03T10:17:54;7.90;98.50
22192;DHT22;11261;52.456;10.850;2023-04-03T10:20:33;8.50;97.50
22192;DHT22;11261;52.456;10.850;2023-04-03T10:23:15;8.70;96.50
22192;DHT22;11261;52.456;10.850;2023-04-03T10:25:55;9.40;97.50
22192;DHT22;11261;52.456;10.850;2023-04-03T10:28:31;8.10;98.00
22192;DHT22;11261;52.456;10.850;2023-04-03T10:31:10;7.30;97.10
22192;DHT22;11261;52.456;10.850;2023-04-03T10:33:52;6.60;96.90
22192;DHT22;11261;52.456;10.850;2023-04-03T10:36:32;6.70;99.70
22192;DHT22;11261;52.456;10.850;2023-04-03T10:39:10;7.60;98.20
22192;DHT22;11261;52.456;10.850;2023-04-03T10:41:50;8.00;96.20
22192;DHT22;11261;52.456;10.850;2023-04-03T10:44:47;8.50;97.40
22192;DHT22;11261;52.456;10.850;2023-04-03T10:47:26;7.20;97.40
22192;DHT22;11261;52.456;10.850;2023-04-03T10:50:00;6.50;95.00
22192;DHT22;11261;52.456;10.850;2023-04-03T10:52:34;7.20;95.90
22192;DHT22;11261;52.456;10.850;2023-04-03T10:55:18;7.40;95.40
22192;DHT22;11261;52.456;10.850;2023-04-03T10:57:49;7.80;94.80
22192;DHT22;11261;52.456;10.850;2023-04-03T11:00:21;8.10;93.80
22192;DHT22;11261;52.456;10.850;2023-04-03T11:02:55;7.30;94.30
22192;DHT22;11261;52.456;10.850;2023-04-03T11:05:30;8.00;94.70
22192;DHT22;11261;52.456;10.850;2023-04-03T11:08:04;7.90;94.10
22192;DHT22;11261;52.456;10.850;2023-04-03T11:10:40;7.80;92.70
22192;DHT22;11261;52.456;10.850;2023-04-03T11:13:12;6.80;94.50
22192;DHT22;11261;52.456;10.850;2023-04-03T11:15:43;6.90;95.10
22192;DHT22;11261;52.456;10.850;2023-04-03T11:18:17;6.90;94.80
22192;DHT22;11261;52.456;10.850;2023-04-03T11:20:53;7.00;95.10
22192;DHT22;11261;52.456;10.850;2023-04-03T11:23:25;8.30;97.20
22192;DHT22;11261;52.456;10.850;2023-04-03T11:26:06;7.50;95.60
22192;DHT22;11261;52.456;10.850;2023-04-03T11:28:36;6.70;94.80
22192;DHT22;11261;52.456;10.850;2023-04-03T11:34:05;7.10;94.70
22192;DHT22;11261;52.456;10.850;2023-04-03T11:36:40;7.70;95.00
22192;DHT22;11261;52.456;10.850;2023-04-03T11:39:19;8.90;95.40
22192;DHT22;11261;52.456;10.850;2023-04-03T11:41:51;7.40;95.80
22192;DHT22;11261;52.456;10.850;2023-04-03T11:44:37;8.40;94.60
22192;DHT22;11261;52.456;10.850;2023-04-03T11:47:06;8.80;96.10
22192;DHT22;11261;52.456;10.850;2023-04-03T11:49:54;9.30;94.00
22192;DHT22;11261;52.456;10.850;2023-04-03T11:52:55;8.80;94.20
22192;DHT22;11261;52.456;10.850;2023-04-03T11:58:30;8.60;93.60
22192;DHT22;11261;52.456;10.850;2023-04-03T12:01:02;9.00;93.50
22192;DHT22;11261;52.456;10.850;2023-04-03T12:10:17;8.30;92.00
22192;DHT22;11261;52.456;10.850;2023-04-03T12:12:59;8.20;94.40
22192;DHT22;11261;52.456;10.850;2023-04-03T12:15:49;7.40;92.10
22192;DHT22;11261;52.456;10.850;2023-04-03T12:18:58;8.20;94.00
22192;DHT22;11261;52.456;10.850;2023-04-03T12:24:34;7.60;92.80
22192;DHT22;11261;52.456;10.850;2023-04-03T12:27:27;8.30;92.70
22192;DHT22;11261;52.456;10.850;2023-04-03T12:30:01;9.20;93.70
22192;DHT22;11261;52.456;10.850;2023-04-03T12:32:46;9.30;90.70
22192;DHT22;11261;52.456;10.850;2023-04-03T12:35:28;9.60;91.90
22192;DHT22;11261;52.456;10.850;2023-04-03T12:41:18;9.70;90.70
22192;DHT22;11261;52.456;10.850;2023-04-03T12:44:01;8.60;93.20
22192;DHT22;11261;52.456;10.850;2023-04-03T12:46:37;8.60;92.70
22192;DHT22;11261;52.456;10.850;2023-04-03T12:49:32;8.90;92.10
22192;DHT22;11261;52.456;10.850;2023-04-03T12:52:04;8.90;91.20
22192;DHT22;11261;52.456;10.850;2023-04-03T12:54:36;8.90;90.60
22192;DHT22;11261;52.456;10.850;2023-04-03T12:57:11;8.60;91.00
22192;DHT22;11261;52.456;10.850;2023-04-03T12:59:40;8.00;93.50
22192;DHT22;11261;52.456;10.850;2023-04-03T13:02:20;8.80;93.50
22192;DHT22;11261;52.456;10.850;2023-04-03T13:04:51;8.90;93.40
22192;DHT22;11261;52.456;10.850;2023-04-03T13:07:24;8.80;92.00
22192;DHT22;11261;52.456;10.850;2023-04-03T13:09:57;7.50;91.80
22192;DHT22;11261;52.456;10.850;2023-04-03T13:12:26;7.60;92.00
22192;DHT22;11261;52.456;10.850;2023-04-03T13:15:02;7.50;92.70
22192;DHT22;11261;52.456;10.850;2023-04-03T13:17:31;8.40;93.90
22192;DHT22;11261;52.456;10.850;2023-04-03T13:20:12;8.50;92.70
22192;DHT22;11261;52.456;10.850;2023-04-03T13:22:46;8.20;93.50
22192;DHT22;11261;52.456;10.850;2023-04-03T13:25:17;8.20;91.00
22192;DHT22;11261;52.456;10.850;2023-04-03T13:27:48;7.70;94.50
22192;DHT22;11261;52.456;10.850;2023-04-03T13:30:29;8.00;93.00
22192;DHT22;11261;52.456;10.850;2023-04-03T13:33:00;7.80;93.60
22192;DHT22;11261;52.456;10.850;2023-04-03T13:35:32;8.50;93.50
22192;DHT22;11261;52.456;10.850;2023-04-03T13:38:05;8.00;93.00
22192;DHT22;11261;52.456;10.850;2023-04-03T13:40:35;8.30;93.10
22192;DHT22;11261;52.456;10.850;2023-04-03T13:43:18;8.20;92.00
22192;DHT22;11261;52.456;10.850;2023-04-03T13:45:57;8.10;92.00
22192;DHT22;11261;52.456;10.850;2023-04-03T13:48:26;7.40;92.00
22192;DHT22;11261;52.456;10.850;2023-04-03T13:50:58;7.30;93.30
22192;DHT22;11261;52.456;10.850;2023-04-03T13:53:28;7.30;91.50
22192;DHT22;11261;52.456;10.850;2023-04-03T13:56:04;8.00;93.60
22192;DHT22;11261;52.456;10.850;2023-04-03T13:58:33;8.60;92.60
22192;DHT22;11261;52.456;10.850;2023-04-03T14:01:09;9.30;92.60
22192;DHT22;11261;52.456;10.850;2023-04-03T14:03:44;8.70;91.50
22192;DHT22;11261;52.456;10.850;2023-04-03T14:06:14;8.70;92.00
22192;DHT22;11261;52.456;10.850;2023-04-03T14:08:42;8.20;91.10
22192;DHT22;11261;52.456;10.850;2023-04-03T14:11:15;7.40;90.50
22192;DHT22;11261;52.456;10.850;2023-04-03T14:13:45;7.60;93.00
22192;DHT22;11261;52.456;10.850;2023-04-03T14:16:16;7.10;91.50
22192;DHT22;11261;52.456;10.850;2023-04-03T14:18:46;7.70;92.70
22192;DHT22;11261;52.456;10.850;2023-04-03T14:21:17;7.70;91.00
22192;DHT22;11261;52.456;10.850;2023-04-03T14:23:45;7.90;91.70
22192;DHT22;11261;52.456;10.850;2023-04-03T14:26:15;8.80;91.50
22192;DHT22;11261;52.456;10.850;2023-04-03T14:28:45;8.90;92.20
22192;DHT22;11261;52.456;10.850;2023-04-03T14:31:16;8.20;90.40
22192;DHT22;11261;52.456;10.850;2023-04-03T14:33:45;7.90;90.80
22192;DHT22;11261;52.456;10.850;2023-04-03T14:36:14;8.10;92.10
22192;DHT22;11261;52.456;10.850;2023-04-03T14:38:44;8.40;92.10
22192;DHT22;11261;52.456;10.850;2023-04-03T14:41:14;8.50;93.50
22192;DHT22;11261;52.456;10.850;2023-04-03T14:43:44;8.20;92.40
22192;DHT22;11261;52.456;10.850;2023-04-03T14:46:15;8.20;93.80
22192;DHT22;11261;52.456;10.850;2023-04-03T14:48:44;7.80;92.70
22192;DHT22;11261;52.456;10.850;2023-04-03T14:51:14;8.00;92.40
22192;DHT22;11261;52.456;10.850;2023-04-03T14:53:44;7.80;90.90
22192;DHT22;11261;52.456;10.850;2023-04-03T14:56:14;7.70;93.00
22192;DHT22;11261;52.456;10.850;2023-04-03T14:58:44;8.60;92.10
22192;DHT22;11261;52.456;10.850;2023-04-03T15:01:17;8.80;91.10
22192;DHT22;11261;52.456;10.850;2023-04-03T15:03:46;8.80;91.50
22192;DHT22;11261;52.456;10.850;2023-04-03T15:06:14;7.90;90.50
22192;DHT22;11261;52.456;10.850;2023-04-03T15:08:43;8.00;92.20
22192;DHT22;11261;52.456;10.850;2023-04-03T15:11:13;8.50;91.70
22192;DHT22;11261;52.456;10.850;2023-04-03T15:13:42;7.90;90.10
22192;DHT22;11261;52.456;10.850;2023-04-03T15:16:16;7.50;91.20
22192;DHT22;11261;52.456;10.850;2023-04-03T15:18:46;7.60;90.40
22192;DHT22;11261;52.456;10.850;2023-04-03T15:21:15;7.60;91.10
22192;DHT22;11261;52.456;10.850;2023-04-03T15:23:43;7.40;91.60
22192;DHT22;11261;52.456;10.850;2023-04-03T15:26:11;7.50;92.20
22192;DHT22;11261;52.456;10.850;2023-04-03T15:28:41;7.30;91.30
22192;DHT22;11261;52.456;10.850;2023-04-03T15:31:10;7.20;91.30
22192;DHT22;11261;52.456;10.850;2023-04-03T15:33:38;6.90;91.90
22192;DHT22;11261;52.456;10.850;2023-04-03T15:36:09;7.50;93.10
22192;DHT22;11261;52.456;10.850;2023-04-03T15:38:55;8.30;91.40
22192;DHT22;11261;52.456;10.850;2023-04-03T15:41:23;7.80;90.80
22192;DHT22;11261;52.456;10.850;2023-04-03T15:43:51;7.40;91.60
22192;DHT22;11261;52.456;10.850;2023-04-03T15:46:20;7.40;91.10
22192;DHT22;11261;52.456;10.850;2023-04-03T15:48:48;7.30;91.60
22192;DHT22;11261;52.456;10.850;2023-04-03T15:51:18;6.80;92.10
22192;DHT22;11261;52.456;10.850;2023-04-03T15:53:46;7.00;93.40
22192;DHT22;11261;52.456;10.850;2023-04-03T15:56:14;7.10;92.50
22192;DHT22;11261;52.456;10.850;2023-04-03T15:58:42;6.60;92.60
22192;DHT22;11261;52.456;10.850;2023-04-03T16:01:11;7.00;93.10
22192;DHT22;11261;52.456;10.850;2023-04-03T16:03:40;7.20;93.00
22192;DHT22;11261;52.456;10.850;2023-04-03T16:06:12;7.20;92.30
22192;DHT22;11261;52.456;10.850;2023-04-03T16:08:42;7.50;92.50
22192;DHT22;11261;52.456;10.850;2023-04-03T16:11:10;7.80;92.50
22192;DHT22;11261;52.456;10.850;2023-04-03T16:13:39;7.90;91.90